Time;durP1;ratioP1;P1;durP2;ratioP2;P2;SDS_P1;SDS_P2;PMS_P1;PMS_P2;Temp;Humidity;BMP_temperature;BMP_pressure;BME280_temperature;BME280_humidity;BME280_pressure;Samples;Min_cycle;Max_cycle;Signal;HPM_P1;HPM_P2
2022/04/03 00:00:43;;;;;;;8.30;4.70;;;3.40;40.30;;;;;;2608315;54;20290;-75
2022/04/03 00:03:09;;;;;;;4.57;3.87;;;3.30;41.80;;;;;;2609604;54;20813;-75
2022/04/03 00:05:38;;;;;;;4.90;4.40;;;3.20;42.10;;;;;;2608283;54;20162;-73
2022/04/03 00:08:08;;;;;;;5.47;4.70;;;3.20;42.80;;;;;;2610562;54;20161;-75
2022/04/03 00:10:36;;;;;;;4.87;4.37;;;3.10;42.40;;;;;;2611431;54;20557;-75
2022/04/03 00:13:02;;;;;;;5.13;4.67;;;3.00;44.10;;;;;;2608061;54;20373;-73
2022/04/03 00:15:28;;;;;;;6.00;5.37;;;3.00;44.30;;;;;;2608971;54;20547;-74
2022/04/03 00:17:55;;;;;;;10.73;4.23;;;3.10;45.10;;;;;;2608790;54;20975;-76
2022/04/03 00:20:20;;;;;;;4.67;3.90;;;3.20;43.50;;;;;;2609068;54;20444;-75
2022/04/03 00:22:49;;;;;;;5.70;5.00;;;3.20;43.40;;;;;;2608326;47;20435;-74
2022/04/03 00:25:17;;;;;;;4.97;4.50;;;3.30;42.90;;;;;;2609644;51;20987;-73
2022/04/03 00:27:42;;;;;;;4.77;4.43;;;3.10;43.40;;;;;;2610256;54;20402;-75
2022/04/03 00:30:09;;;;;;;6.97;5.70;;;3.20;44.70;;;;;;2607332;54;20434;-74
2022/04/03 00:32:35;;;;;;;5.90;4.97;;;3.10;45.10;;;;;;2607638;54;20407;-74
2022/04/03 00:35:02;;;;;;;4.90;4.50;;;3.10;46.20;;;;;;2606787;54;20383;-74
2022/04/03 00:37:28;;;;;;;5.30;4.80;;;3.10;47.40;;;;;;2606740;47;20462;-74
2022/04/03 00:39:53;;;;;;;10.10;5.03;;;3.10;46.30;;;;;;2608517;47;20415;-75
2022/04/03 00:42:20;;;;;;;4.87;4.37;;;3.10;46.00;;;;;;2609721;54;20181;-76
2022/04/03 00:44:46;;;;;;;6.17;4.47;;;3.00;47.40;;;;;;2612499;54;20238;-74
2022/04/03 00:47:15;;;;;;;4.43;4.13;;;3.00;49.00;;;;;;2609775;54;20387;-75
2022/04/03 00:49:40;;;;;;;4.60;4.20;;;2.90;50.10;;;;;;2607294;54;20403;-76
2022/04/03 00:52:06;;;;;;;5.37;4.03;;;3.00;50.20;;;;;;2608876;47;20842;-74
2022/04/03 00:54:32;;;;;;;5.00;4.60;;;3.00;47.80;;;;;;2607782;54;20792;-75
2022/04/03 00:56:58;;;;;;;7.13;4.83;;;3.00;47.70;;;;;;2607852;54;20402;-73
2022/04/03 00:59:24;;;;;;;6.40;5.33;;;2.90;47.40;;;;;;2607812;54;20684;-76
2022/04/03 01:01:50;;;;;;;4.67;4.20;;;2.80;49.10;;;;;;2609730;54;20419;-77
2022/04/03 01:04:16;;;;;;;7.03;5.20;;;2.80;49.10;;;;;;2611119;54;20427;-78
2022/04/03 01:06:42;;;;;;;5.37;4.90;;;2.90;49.40;;;;;;2609590;54;20271;-77
2022/04/03 01:09:09;;;;;;;5.30;4.27;;;3.00;49.60;;;;;;2607958;46;20438;-77
2022/04/03 01:11:37;;;;;;;5.67;5.13;;;3.00;48.50;;;;;;2606452;54;20147;-78
2022/04/03 01:14:05;;;;;;;4.93;4.23;;;3.20;47.10;;;;;;2607636;54;20401;-78
2022/04/03 01:16:32;;;;;;;4.27;3.97;;;3.20;45.50;;;;;;2606099;54;20387;-77
2022/04/03 01:18:58;;;;;;;11.10;4.37;;;3.10;45.60;;;;;;2609087;54;20434;-77
2022/04/03 01:21:24;;;;;;;5.23;4.60;;;3.00;47.40;;;;;;2611214;54;20406;-75
2022/04/03 01:23:50;;;;;;;5.43;4.93;;;3.00;47.70;;;;;;2607664;54;20399;-80
2022/04/03 01:26:16;;;;;;;6.37;4.80;;;3.00;49.50;;;;;;2606411;54;20165;-77
2022/04/03 01:28:43;;;;;;;4.90;4.40;;;3.10;48.70;;;;;;2608164;54;20474;-76
2022/04/03 01:31:09;;;;;;;4.17;3.77;;;3.00;48.00;;;;;;2608157;52;20402;-77
2022/04/03 01:33:36;;;;;;;5.23;4.73;;;3.00;46.70;;;;;;2610418;39;20837;-76
2022/04/03 01:36:03;;;;;;;10.57;5.07;;;2.90;47.20;;;;;;2609342;54;20566;-77
2022/04/03 01:38:28;;;;;;;6.83;4.90;;;2.90;48.30;;;;;;2610192;54;20446;-77
2022/04/03 01:40:54;;;;;;;7.10;5.30;;;2.80;48.90;;;;;;2609915;54;20411;-75
2022/04/03 01:43:20;;;;;;;5.27;4.87;;;2.70;50.50;;;;;;2608673;51;20174;-77
2022/04/03 01:45:46;;;;;;;6.43;5.23;;;2.50;51.80;;;;;;2609393;54;20227;-77
2022/04/03 01:48:12;;;;;;;5.33;4.80;;;2.20;55.60;;;;;;2608467;47;20208;-78
2022/04/03 01:50:37;;;;;;;5.40;4.90;;;2.20;58.50;;;;;;2608280;54;20150;-78
2022/04/03 01:53:04;;;;;;;6.77;6.17;;;2.10;62.40;;;;;;2607487;54;20383;-78
2022/04/03 01:55:29;;;;;;;5.60;5.00;;;2.10;64.00;;;;;;2606826;54;20171;-78
2022/04/03 01:57:55;;;;;;;5.23;4.83;;;2.20;63.10;;;;;;2608068;54;20499;-77
2022/04/03 02:00:21;;;;;;;6.57;5.00;;;2.10;63.40;;;;;;2609217;54;20191;-78
2022/04/03 02:02:49;;;;;;;5.00;4.60;;;;;;;;;;2608499;39;20574;-78
2022/04/03 02:05:15;;;;;;;6.20;5.60;;;1.90;65.10;;;;;;2609504;47;20406;-78
2022/04/03 02:07:41;;;;;;;5.43;4.90;;;1.90;66.40;;;;;;2609796;54;20446;-78
2022/04/03 02:10:09;;;;;;;4.90;4.50;;;1.70;70.70;;;;;;2607907;39;20541;-79
2022/04/03 02:12:36;;;;;;;7.10;4.67;;;1.80;73.20;;;;;;2609782;39;21095;-77
2022/04/03 02:15:05;;;;;;;6.23;4.97;;;1.80;75.50;;;;;;2610624;54;20999;-78
2022/04/03 02:17:32;;;;;;;5.57;4.73;;;1.80;78.40;;;;;;2606486;54;20422;-76
2022/04/03 02:19:58;;;;;;;5.57;4.80;;;1.80;80.30;;;;;;2608108;51;20491;-77
2022/04/03 02:22:24;;;;;;;7.50;5.30;;;1.70;83.80;;;;;;2608327;47;20952;-77
2022/04/03 02:24:49;;;;;;;5.00;4.57;;;1.60;88.20;;;;;;2606708;54;20730;-76
2022/04/03 02:27:15;;;;;;;6.27;4.57;;;1.70;90.90;;;;;;2608676;54;20162;-77
2022/04/03 02:29:41;;;;;;;6.10;5.20;;;1.60;90.90;;;;;;2608742;54;20186;-78
2022/04/03 02:32:07;;;;;;;6.57;4.97;;;1.70;91.90;;;;;;2611148;47;21073;-79
2022/04/03 02:34:33;;;;;;;6.80;4.90;;;1.60;91.80;;;;;;2611329;54;20230;-77
2022/04/03 02:36:58;;;;;;;5.83;5.30;;;1.50;92.40;;;;;;2607018;54;20379;-77
2022/04/03 02:39:25;;;;;;;5.80;5.20;;;1.40;94.70;;;;;;2609398;54;20155;-76
2022/04/03 02:41:50;;;;;;;6.10;5.33;;;1.40;95.20;;;;;;2609200;54;20150;-77
2022/04/03 02:44:17;;;;;;;5.97;5.30;;;1.50;96.40;;;;;;2610458;54;20490;-77
2022/04/03 02:46:43;;;;;;;5.30;4.63;;;1.60;96.80;;;;;;2610179;54;20155;-77
2022/04/03 02:49:09;;;;;;;5.10;4.60;;;1.60;96.40;;;;;;2609265;54;20431;-77
2022/04/03 02:51:36;;;;;;;6.03;5.20;;;1.50;97.50;;;;;;2610816;31;20860;-78
2022/04/03 02:54:02;;;;;;;6.07;5.23;;;1.50;99.00;;;;;;2606879;54;20218;-77
2022/04/03 02:56:28;;;;;;;5.67;4.80;;;;;;;;;;2609334;31;20888;-76
2022/04/03 02:58:55;;;;;;;7.83;5.00;;;1.60;98.50;;;;;;2609134;54;20371;-76
2022/04/03 03:01:21;;;;;;;7.50;5.97;;;;;;;;;;2608547;47;20447;-77
2022/04/03 03:03:48;;;;;;;6.30;5.70;;;1.60;98.80;;;;;;2607784;54;20371;-76
2022/04/03 03:06:15;;;;;;;6.63;5.90;;;1.60;98.30;;;;;;2608393;39;20833;-78
2022/04/03 03:08:41;;;;;;;7.27;5.50;;;1.40;98.60;;;;;;2610038;54;20502;-79
2022/04/03 03:11:07;;;;;;;6.30;5.70;;;1.30;99.90;;;;;;2609802;54;20157;-78
2022/04/03 03:13:33;;;;;;;6.60;4.80;;;1.30;99.90;;;;;;2607669;47;20428;-77
2022/04/03 03:15:59;;;;;;;4.80;4.30;;;1.30;99.90;;;;;;2606225;39;21057;-78
2022/04/03 03:18:26;;;;;;;6.63;5.37;;;1.40;99.90;;;;;;2608339;54;20470;-77
2022/04/03 03:20:52;;;;;;;5.20;4.80;;;1.10;99.90;;;;;;2607157;54;20411;-77
2022/04/03 03:23:18;;;;;;;7.20;5.77;;;1.00;99.90;;;;;;2608339;54;20457;-77
2022/04/03 03:25:45;;;;;;;5.30;4.47;;;1.00;99.90;;;;;;2607721;54;20931;-78
2022/04/03 03:28:12;;;;;;;6.87;4.50;;;1.00;99.90;;;;;;2610789;54;20425;-78
2022/04/03 03:30:38;;;;;;;6.07;5.37;;;0.90;99.90;;;;;;2610227;54;20415;-78
2022/04/03 03:33:05;;;;;;;7.50;4.77;;;0.90;99.90;;;;;;2609091;54;20409;-78
2022/04/03 03:35:31;;;;;;;5.70;5.20;;;0.80;99.90;;;;;;2609263;47;20430;-77
2022/04/03 03:37:57;;;;;;;6.43;5.50;;;0.70;99.90;;;;;;2609122;39;20934;-77
2022/04/03 03:40:23;;;;;;;7.80;4.67;;;0.60;99.90;;;;;;2608497;47;20446;-78
2022/04/03 03:42:49;;;;;;;5.80;5.20;;;0.50;99.90;;;;;;2610894;54;20423;-78
2022/04/03 03:45:16;;;;;;;7.30;6.40;;;0.50;99.90;;;;;;2612268;54;20173;-78
2022/04/03 03:47:46;;;;;;;4.80;4.40;;;0.40;99.90;;;;;;2607572;51;20426;-76
2022/04/03 03:50:13;;;;;;;5.40;4.30;;;0.40;99.90;;;;;;2608228;54;20437;-78
2022/04/03 03:52:41;;;;;;;5.50;5.00;;;0.40;99.90;;;;;;2608135;47;20990;-78
2022/04/03 03:55:08;;;;;;;6.33;5.00;;;0.30;99.90;;;;;;2605852;54;20439;-78
2022/04/03 03:57:34;;;;;;;6.50;4.33;;;0.30;99.90;;;;;;2607946;54;20407;-78
2022/04/03 04:00:00;;;;;;;6.37;5.13;;;0.30;99.90;;;;;;2608780;54;20847;-77
2022/04/03 04:02:27;;;;;;;5.10;4.63;;;0.30;99.90;;;;;;2610274;54;20419;-77
2022/04/03 04:04:53;;;;;;;8.43;4.63;;;-0.10;99.90;;;;;;2608533;54;20391;-77
2022/04/03 04:07:19;;;;;;;9.80;5.20;;;-0.10;99.90;;;;;;2607297;54;20414;-77
2022/04/03 04:09:45;;;;;;;7.40;4.90;;;0.00;99.90;;;;;;2607869;39;21056;-77
2022/04/03 04:12:11;;;;;;;5.50;4.40;;;0.00;99.90;;;;;;2606900;47;20282;-78
2022/04/03 04:14:40;;;;;;;6.33;5.20;;;-0.20;99.90;;;;;;2606118;54;20408;-79
2022/04/03 04:17:08;;;;;;;5.67;5.00;;;-0.20;99.90;;;;;;2607944;54;20135;-79
2022/04/03 04:19:35;;;;;;;4.87;4.43;;;-0.20;99.90;;;;;;2609862;54;20462;-78
2022/04/03 04:22:01;;;;;;;10.43;5.20;;;-0.20;99.90;;;;;;2610350;54;20383;-77
2022/04/03 04:24:35;;;;;;;4.43;4.03;;;-0.10;99.90;;;;;;2606785;39;20997;-77
2022/04/03 04:27:01;;;;;;;5.97;4.60;;;0.00;99.90;;;;;;2608721;39;20473;-77
2022/04/03 04:29:27;;;;;;;6.10;5.47;;;;;;;;;;2608170;54;20853;-78
2022/04/03 04:31:52;;;;;;;6.33;5.40;;;-0.10;99.90;;;;;;2607247;54;20196;-78
2022/04/03 04:34:19;;;;;;;5.63;4.30;;;;;;;;;;2608032;54;20407;-78
2022/04/03 04:36:44;;;;;;;7.20;5.40;;;0.00;99.90;;;;;;2608297;47;20162;-77
2022/04/03 04:39:10;;;;;;;4.93;4.37;;;-0.30;99.90;;;;;;2609675;54;20514;-78
2022/04/03 04:41:37;;;;;;;7.73;4.73;;;-0.30;99.90;;;;;;2609161;47;20752;-78
2022/04/03 04:44:03;;;;;;;7.10;4.80;;;;;;;;;;2608400;39;20829;-77
2022/04/03 04:46:29;;;;;;;6.53;5.57;;;-0.50;99.90;;;;;;2608276;54;20523;-78
2022/04/03 04:48:55;;;;;;;5.50;5.00;;;-0.50;99.90;;;;;;2606849;54;20522;-76
2022/04/03 04:51:20;;;;;;;5.83;4.63;;;-0.40;99.90;;;;;;2608451;54;20145;-77
2022/04/03 04:53:46;;;;;;;6.50;5.10;;;-0.30;99.90;;;;;;2606911;51;20190;-78
2022/04/03 04:56:13;;;;;;;5.23;4.77;;;-0.30;99.90;;;;;;2610143;47;20167;-77
2022/04/03 04:58:39;;;;;;;7.33;5.93;;;-0.40;99.90;;;;;;2609176;54;20146;-77
2022/04/03 05:01:05;;;;;;;5.90;5.40;;;-0.40;99.90;;;;;;2607764;47;20423;-78
2022/04/03 05:03:30;;;;;;;6.03;4.97;;;0.60;99.90;;;;;;2607869;54;20401;-78
2022/04/03 05:05:57;;;;;;;6.53;5.90;;;-0.30;99.90;;;;;;2608134;54;20147;-78
2022/04/03 05:08:23;;;;;;;7.83;7.03;;;;;;;;;;2608421;47;20171;-78
2022/04/03 05:10:50;;;;;;;5.73;5.33;;;-0.40;99.90;;;;;;2608625;54;20501;-77
2022/04/03 05:13:16;;;;;;;7.20;5.13;;;-0.60;99.90;;;;;;2609967;54;20954;-78
2022/04/03 05:15:42;;;;;;;5.00;4.40;;;-0.40;99.90;;;;;;2610859;54;20494;-78
2022/04/03 05:18:08;;;;;;;5.70;5.10;;;-0.40;99.90;;;;;;2607355;54;20408;-76
2022/04/03 05:20:34;;;;;;;6.80;5.00;;;-0.60;99.90;;;;;;2607325;54;20175;-78
2022/04/03 05:22:59;;;;;;;6.13;5.40;;;-0.60;99.90;;;;;;2607119;47;20178;-77
2022/04/03 05:25:25;;;;;;;6.70;5.20;;;-0.50;99.90;;;;;;2607207;54;20399;-76
2022/04/03 05:27:51;;;;;;;6.97;6.20;;;;;;;;;;2608650;54;20151;-78
2022/04/03 05:30:18;;;;;;;10.23;6.17;;;-0.60;99.90;;;;;;2607204;39;20469;-77
2022/04/03 05:32:43;;;;;;;6.63;5.97;;;-0.60;99.90;;;;;;2610386;54;20523;-79
2022/04/03 05:35:13;;;;;;;9.83;7.27;;;-0.50;99.90;;;;;;2608412;54;20931;-78
2022/04/03 05:37:39;;;;;;;6.83;5.80;;;;;;;;;;2606859;51;20182;-79
2022/04/03 05:40:06;;;;;;;7.07;6.37;;;;;;;;;;2609030;39;20957;-78
2022/04/03 05:42:35;;;;;;;10.13;7.87;;;;;;;;;;2609974;54;20429;-79
2022/04/03 05:45:01;;;;;;;9.67;7.13;;;-0.20;99.90;;;;;;2609914;54;20372;-78
2022/04/03 05:47:28;;;;;;;10.53;8.90;;;-0.20;99.90;;;;;;2607608;54;20438;-79
2022/04/03 05:49:53;;;;;;;13.13;8.90;;;0.00;99.90;;;;;;2610309;47;20454;-78
2022/04/03 05:52:20;;;;;;;9.23;7.27;;;0.00;99.90;;;;;;2610123;46;20939;-79
2022/04/03 05:54:46;;;;;;;9.13;8.20;;;0.00;99.90;;;;;;2608381;54;20186;-79
2022/04/03 05:57:11;;;;;;;9.60;7.63;;;0.30;99.90;;;;;;2608884;54;20479;-79
2022/04/03 05:59:37;;;;;;;9.40;8.40;;;0.70;99.90;;;;;;2608207;47;20174;-80
2022/04/03 06:02:05;;;;;;;9.37;8.37;;;1.20;99.90;;;;;;2608377;47;20162;-76
2022/04/03 06:04:31;;;;;;;9.70;7.23;;;1.40;99.90;;;;;;2608882;39;21247;-79
2022/04/03 06:06:56;;;;;;;9.33;8.20;;;1.70;99.90;;;;;;2611736;39;21025;-75
2022/04/03 06:09:22;;;;;;;9.37;8.00;;;1.80;99.90;;;;;;2609822;39;20532;-78
2022/04/03 06:11:48;;;;;;;8.50;7.67;;;1.90;99.90;;;;;;2607913;47;20255;-79
2022/04/03 06:14:14;;;;;;;7.73;6.90;;;1.80;99.90;;;;;;2609525;39;20630;-78
2022/04/03 06:16:39;;;;;;;8.10;7.23;;;1.60;99.90;;;;;;2609352;54;20154;-78
2022/04/03 06:19:05;;;;;;;13.97;7.30;;;1.60;99.90;;;;;;2608237;54;20974;-77
2022/04/03 06:21:31;;;;;;;11.40;7.70;;;1.80;99.90;;;;;;2607783;54;20231;-77
2022/04/03 06:23:57;;;;;;;9.83;8.27;;;2.00;97.80;;;;;;2608727;47;20927;-80
2022/04/03 06:26:22;;;;;;;8.63;7.43;;;2.10;96.50;;;;;;2611373;39;20509;-77
2022/04/03 06:28:48;;;;;;;8.87;8.00;;;2.70;94.80;;;;;;2606310;47;20204;-78
2022/04/03 06:31:14;;;;;;;8.73;7.83;;;3.50;88.50;;;;;;2609707;54;20155;-77
2022/04/03 06:33:40;;;;;;;8.47;7.67;;;4.20;69.20;;;;;;2608164;54;20182;-78
2022/04/03 06:36:06;;;;;;;8.57;7.10;;;4.10;63.40;;;;;;2605830;46;20654;-76
2022/04/03 06:38:32;;;;;;;9.60;7.43;;;4.50;57.40;;;;;;2609015;54;20939;-78
2022/04/03 06:40:58;;;;;;;8.93;6.67;;;4.70;53.50;;;;;;2608434;54;20457;-80
2022/04/03 06:43:30;;;;;;;9.10;8.10;;;4.90;51.00;;;;;;2609884;54;20370;-75
2022/04/03 06:45:57;;;;;;;8.13;7.17;;;5.10;50.50;;;;;;2611016;54;21018;-76
2022/04/03 06:48:23;;;;;;;12.77;8.17;;;5.00;49.70;;;;;;2609787;54;20539;-77
2022/04/03 06:50:49;;;;;;;7.57;6.17;;;5.50;48.20;;;;;;2609465;54;20447;-78
2022/04/03 06:53:15;;;;;;;9.07;6.83;;;6.00;44.30;;;;;;2608525;54;20396;-77
2022/04/03 06:55:41;;;;;;;7.60;6.90;;;6.00;40.20;;;;;;2608268;54;20411;-77
2022/04/03 06:58:07;;;;;;;8.03;7.30;;;6.30;38.80;;;;;;2608943;39;21482;-77
2022/04/03 07:00:37;;;;;;;6.97;6.37;;;6.80;35.10;;;;;;2611406;54;20421;-77
2022/04/03 07:03:03;;;;;;;7.90;6.23;;;7.20;29.60;;;;;;2611086;54;20428;-78
2022/04/03 07:05:29;;;;;;;7.03;6.43;;;7.10;26.00;;;;;;2609705;54;20434;-77
2022/04/03 07:07:55;;;;;;;7.07;6.37;;;7.40;22.30;;;;;;2610394;54;20967;-77
2022/04/03 07:10:21;;;;;;;6.77;6.00;;;7.20;22.00;;;;;;2609718;54;20142;-78
2022/04/03 07:12:47;;;;;;;9.00;7.50;;;7.30;22.00;;;;;;2609380;54;20984;-77
2022/04/03 07:15:14;;;;;;;9.23;6.40;;;7.20;21.30;;;;;;2611008;39;20562;-78
2022/04/03 07:17:41;;;;;;;12.57;7.03;;;7.40;21.00;;;;;;2610946;47;20417;-78
2022/04/03 07:20:08;;;;;;;7.67;6.60;;;7.20;20.30;;;;;;2612429;54;20413;-77
2022/04/03 07:22:34;;;;;;;6.30;5.70;;;7.40;19.10;;;;;;2610041;54;21018;-76
2022/04/03 07:25:00;;;;;;;6.73;5.77;;;7.40;16.20;;;;;;2609503;47;20397;-76
2022/04/03 07:27:27;;;;;;;5.90;5.40;;;7.80;14.60;;;;;;2610698;54;20416;-76
2022/04/03 07:29:53;;;;;;;6.50;5.97;;;7.90;11.90;;;;;;2609884;54;20211;-76
2022/04/03 07:32:19;;;;;;;6.60;6.00;;;7.80;10.30;;;;;;2609726;54;20408;-76
2022/04/03 07:34:44;;;;;;;6.67;5.87;;;8.10;8.40;;;;;;2609268;54;20450;-76
2022/04/03 07:37:10;;;;;;;7.00;6.30;;;8.60;5.00;;;;;;2610776;54;20149;-77
2022/04/03 07:39:36;;;;;;;6.23;5.50;;;9.00;3.20;;;;;;2611848;54;20243;-77
2022/04/03 07:42:03;;;;;;;6.20;5.63;;;9.10;2.30;;;;;;2609636;54;20151;-77
2022/04/03 07:44:29;;;;;;;7.70;5.97;;;9.10;1.00;;;;;;2610171;39;20886;-74
2022/04/03 07:46:55;;;;;;;6.83;6.33;;;9.10;1.00;;;;;;2610148;54;20407;-77
2022/04/03 07:49:21;;;;;;;8.00;6.17;;;9.10;1.00;;;;;;2608442;39;22175;-77
2022/04/03 07:51:47;;;;;;;6.67;6.27;;;9.30;1.00;;;;;;2609298;54;20628;-77
2022/04/03 07:54:14;;;;;;;7.10;6.50;;;9.50;1.00;;;;;;2609640;54;20451;-76
2022/04/03 07:56:40;;;;;;;8.60;6.27;;;9.10;1.00;;;;;;2612603;39;20852;-77
2022/04/03 07:59:06;;;;;;;6.70;6.10;;;9.50;1.00;;;;;;2610738;54;20410;-76
2022/04/03 08:01:35;;;;;;;6.93;6.13;;;9.20;1.00;;;;;;2610604;46;20470;-77
2022/04/03 08:04:01;;;;;;;5.70;5.30;;;9.10;1.00;;;;;;2607928;54;20393;-76
2022/04/03 08:06:26;;;;;;;12.67;7.30;;;9.40;1.00;;;;;;2608941;54;20469;-76
2022/04/03 08:08:52;;;;;;;6.70;6.20;;;9.70;1.00;;;;;;2608666;47;20433;-77
2022/04/03 08:11:18;;;;;;;6.10;5.53;;;9.80;1.00;;;;;;2608661;47;20166;-76
2022/04/03 08:13:45;;;;;;;5.90;5.50;;;9.20;1.00;;;;;;2611016;54;20415;-76
2022/04/03 08:16:11;;;;;;;6.30;4.90;;;9.10;1.00;;;;;;2611021;54;20449;-77
2022/04/03 08:18:38;;;;;;;5.53;5.13;;;9.10;1.00;;;;;;2609115;54;20401;-78
2022/04/03 08:21:04;;;;;;;5.33;4.93;;;9.10;1.00;;;;;;2608987;54;21011;-77
2022/04/03 08:23:30;;;;;;;6.33;5.20;;;9.20;1.00;;;;;;2609379;47;20454;-76
2022/04/03 08:25:56;;;;;;;5.63;4.87;;;9.40;1.00;;;;;;2608819;47;20177;-78
2022/04/03 08:28:23;;;;;;;5.77;4.90;;;9.40;1.00;;;;;;2610113;39;20992;-79
2022/04/03 08:30:49;;;;;;;4.80;4.50;;;9.10;1.00;;;;;;2611021;54;20160;-77
2022/04/03 08:33:15;;;;;;;5.53;5.10;;;8.50;1.00;;;;;;2611718;47;21584;-75
2022/04/03 08:35:41;;;;;;;5.90;5.30;;;8.10;1.00;;;;;;2610264;54;21030;-78
2022/04/03 08:38:08;;;;;;;6.30;5.70;;;7.70;1.00;;;;;;2609660;47;20209;-78
2022/04/03 08:40:36;;;;;;;4.87;4.40;;;7.30;1.00;;;;;;2610014;46;20420;-77
2022/04/03 08:43:03;;;;;;;5.97;4.57;;;7.00;1.00;;;;;;2609633;54;20382;-78
2022/04/03 08:45:29;;;;;;;4.10;3.70;;;7.00;1.00;;;;;;2609717;54;20383;-77
2022/04/03 08:48:02;;;;;;;4.50;4.03;;;7.00;1.00;;;;;;2612471;47;20427;-75
2022/04/03 08:50:31;;;;;;;4.43;4.00;;;7.00;1.00;;;;;;2612886;54;20404;-76
2022/04/03 08:53:00;;;;;;;10.30;4.80;;;6.80;1.00;;;;;;2609194;54;20409;-77
2022/04/03 08:55:26;;;;;;;4.97;4.60;;;6.80;1.00;;;;;;2609534;54;20825;-77
2022/04/03 08:57:52;;;;;;;4.97;4.57;;;6.60;1.00;;;;;;2609702;54;20388;-78
2022/04/03 09:00:18;;;;;;;4.77;4.37;;;6.50;1.00;;;;;;2609946;39;20711;-78
2022/04/03 09:02:46;;;;;;;5.00;4.60;;;6.40;1.00;;;;;;2612100;39;20826;-76
2022/04/03 09:05:12;;;;;;;5.40;4.37;;;6.70;1.00;;;;;;2608404;54;20403;-78
2022/04/03 09:07:38;;;;;;;6.50;4.10;;;6.80;1.00;;;;;;2612243;47;21104;-77
2022/04/03 09:10:08;;;;;;;4.40;3.70;;;6.70;1.00;;;;;;2611089;47;20418;-78
2022/04/03 09:12:42;;;;;;;4.37;4.00;;;6.80;1.00;;;;;;2609557;54;21038;-77
2022/04/03 09:15:14;;;;;;;4.97;4.57;;;6.60;1.00;;;;;;2609509;47;20408;-77
2022/04/03 09:17:55;;;;;;;4.57;4.27;;;6.40;1.00;;;;;;2610828;54;20462;-76
2022/04/03 09:20:30;;;;;;;4.70;4.30;;;6.30;1.00;;;;;;2609888;54;20453;-77
2022/04/03 09:23:02;;;;;;;4.93;4.43;;;6.40;1.00;;;;;;2611107;54;20387;-77
2022/04/03 09:25:30;;;;;;;6.80;4.30;;;6.40;1.00;;;;;;2611073;54;20462;-78
2022/04/03 09:28:02;;;;;;;3.87;3.57;;;6.40;1.00;;;;;;2612741;54;20414;-78
2022/04/03 09:30:34;;;;;;;4.97;4.50;;;6.30;1.30;;;;;;2612300;47;20969;-78
2022/04/03 09:33:01;;;;;;;4.70;4.30;;;6.50;1.10;;;;;;2611393;54;20438;-78
2022/04/03 09:35:29;;;;;;;4.73;4.33;;;6.30;1.20;;;;;;2610953;54;20443;-78
2022/04/03 09:38:15;;;;;;;7.13;6.10;;;6.10;1.40;;;;;;2611507;54;21157;-75
2022/04/03 09:40:48;;;;;;;8.43;7.63;;;6.10;1.40;;;;;;2609855;54;20952;-78
2022/04/03 09:43:15;;;;;;;7.27;6.57;;;5.80;2.50;;;;;;2613997;54;21613;-77
2022/04/03 09:46:01;;;;;;;4.93;4.53;;;5.70;2.20;;;;;;2611262;51;20418;-77
2022/04/03 09:48:29;;;;;;;6.40;5.10;;;5.90;1.40;;;;;;2610246;54;20428;-78
2022/04/03 09:50:55;;;;;;;4.40;4.10;;;6.10;1.00;;;;;;2609896;54;20411;-76
2022/04/03 09:53:20;;;;;;;5.20;4.23;;;6.10;1.00;;;;;;2610039;54;20975;-78
2022/04/03 09:55:46;;;;;;;4.27;3.97;;;6.40;1.00;;;;;;2610541;39;20736;-76
2022/04/03 09:58:12;;;;;;;4.30;4.00;;;6.20;1.00;;;;;;2610798;54;20267;-78
2022/04/03 10:00:41;;;;;;;4.37;4.10;;;6.00;1.00;;;;;;2611378;47;20398;-77
2022/04/03 10:03:10;;;;;;;4.57;4.17;;;6.30;1.00;;;;;;2611962;46;20466;-79
2022/04/03 10:05:36;;;;;;;4.53;4.23;;;6.30;1.00;;;;;;2610136;47;20415;-79
2022/04/03 10:08:05;;;;;;;5.80;4.70;;;6.40;1.00;;;;;;2611139;54;20427;-78
2022/04/03 10:10:36;;;;;;;5.87;4.80;;;6.30;1.00;;;;;;2610823;54;20467;-77
2022/04/03 10:13:03;;;;;;;6.50;4.20;;;6.30;1.00;;;;;;2609947;54;20446;-77
2022/04/03 10:15:29;;;;;;;6.27;5.83;;;6.10;1.00;;;;;;2611172;54;21353;-78
2022/04/03 10:17:55;;;;;;;5.33;4.83;;;6.10;1.20;;;;;;2612733;54;20395;-78
2022/04/03 10:20:26;;;;;;;5.57;5.07;;;6.20;2.60;;;;;;2613420;47;21042;-78
2022/04/03 10:23:00;;;;;;;4.00;3.70;;;6.30;3.90;;;;;;2609960;54;21003;-76
2022/04/03 10:25:31;;;;;;;4.70;4.30;;;6.40;4.60;;;;;;2609809;39;20764;-78
2022/04/03 10:28:02;;;;;;;4.17;3.87;;;6.70;3.20;;;;;;2608652;46;20440;-78
2022/04/03 10:30:37;;;;;;;4.07;3.67;;;6.80;4.40;;;;;;2609542;54;20938;-78
2022/04/03 10:33:03;;;;;;;3.90;3.60;;;7.10;4.00;;;;;;2609423;46;20434;-78
2022/04/03 10:35:29;;;;;;;4.50;3.80;;;7.10;2.90;;;;;;2610315;46;20829;-78
2022/04/03 10:38:05;;;;;;;4.47;4.17;;;7.10;2.70;;;;;;2611384;39;20766;-76
2022/04/03 10:40:35;;;;;;;4.63;4.30;;;7.60;1.70;;;;;;2611921;54;20456;-76
2022/04/03 10:43:05;;;;;;;3.93;3.73;;;7.90;1.80;;;;;;2609137;51;20434;-76
2022/04/03 10:45:46;;;;;;;4.47;4.07;;;8.50;1.00;;;;;;2607667;46;20552;-78
2022/04/03 10:48:21;;;;;;;4.73;4.53;;;9.10;1.00;;;;;;2610124;54;20507;-78
2022/04/03 10:51:33;;;;;;;5.37;4.80;;;9.80;1.00;;;;;;2610533;39;20819;-76
2022/04/03 10:54:02;;;;;;;4.10;3.80;;;10.00;1.00;;;;;;2609088;54;20466;-77
2022/04/03 10:56:29;;;;;;;7.53;4.67;;;10.20;1.00;;;;;;2608893;54;20435;-76
2022/04/03 10:58:59;;;;;;;4.27;3.90;;;10.20;1.00;;;;;;2611847;54;20494;-75
2022/04/03 11:01:26;;;;;;;4.90;4.50;;;10.10;1.00;;;;;;2610518;54;20454;-75
2022/04/03 11:03:55;;;;;;;6.40;4.20;;;9.90;1.00;;;;;;2610105;54;20426;-77
2022/04/03 11:06:23;;;;;;;3.90;3.60;;;9.90;1.00;;;;;;2609767;54;20555;-77
2022/04/03 11:08:57;;;;;;;4.27;3.57;;;10.30;1.00;;;;;;2609826;54;20532;-77
2022/04/03 11:11:42;;;;;;;4.07;3.67;;;10.80;1.00;;;;;;2608510;54;20960;-77
2022/04/03 11:14:09;;;;;;;4.07;3.77;;;11.00;1.00;;;;;;2613481;54;20561;-76
2022/04/03 11:16:55;;;;;;;3.80;3.60;;;10.60;1.00;;;;;;2612504;54;20450;-77
2022/04/03 11:19:55;;;;;;;6.00;5.17;;;10.50;1.00;;;;;;2611892;54;20472;-76
2022/04/03 11:22:21;;;;;;;4.33;3.93;;;10.60;1.00;;;;;;2608466;54;20474;-77
2022/04/03 11:24:48;;;;;;;3.87;3.57;;;10.60;1.00;;;;;;2609296;54;20426;-76
2022/04/03 11:27:15;;;;;;;4.63;3.80;;;10.80;1.00;;;;;;2608987;54;20475;-75
2022/04/03 11:29:41;;;;;;;12.07;4.10;;;11.20;1.00;;;;;;2609446;54;20443;-77
2022/04/03 11:32:09;;;;;;;4.23;3.93;;;11.40;1.00;;;;;;2610488;39;20818;-79
2022/04/03 11:34:35;;;;;;;4.50;4.20;;;11.40;1.00;;;;;;2610798;54;20431;-76
2022/04/03 11:37:04;;;;;;;4.00;3.70;;;11.30;1.00;;;;;;2608504;54;20470;-76
2022/04/03 11:39:34;;;;;;;4.63;4.23;;;11.90;1.00;;;;;;2610304;54;20530;-76
2022/04/03 11:42:08;;;;;;;4.57;4.17;;;12.00;1.00;;;;;;2609235;47;20944;-76
2022/04/03 11:44:36;;;;;;;4.67;4.27;;;12.20;1.00;;;;;;2609394;39;20788;-77
2022/04/03 11:47:04;;;;;;;5.60;4.50;;;11.80;1.00;;;;;;2609726;54;20450;-78
2022/04/03 11:49:30;;;;;;;4.67;4.27;;;11.60;1.00;;;;;;2609870;39;20999;-77
2022/04/03 11:52:06;;;;;;;4.17;3.87;;;11.10;1.00;;;;;;2610346;54;21244;-78
2022/04/03 11:54:33;;;;;;;4.50;4.20;;;11.10;1.00;;;;;;2611104;54;20463;-79
2022/04/03 11:57:07;;;;;;;3.87;3.67;;;10.90;1.00;;;;;;2609440;54;20917;-76
2022/04/03 11:59:35;;;;;;;3.60;3.40;;;10.50;1.00;;;;;;2609012;39;20843;-77
2022/04/03 12:02:11;;;;;;;4.97;4.50;;;10.20;1.00;;;;;;2609634;54;20406;-76
2022/04/03 12:04:39;;;;;;;4.43;4.03;;;9.90;1.00;;;;;;2607854;54;20481;-76
2022/04/03 12:07:05;;;;;;;4.93;4.50;;;9.60;1.00;;;;;;2612051;39;21064;-75
2022/04/03 12:09:32;;;;;;;4.93;4.53;;;9.30;1.00;;;;;;2611639;39;20854;-75
2022/04/03 12:12:04;;;;;;;3.93;3.73;;;9.50;1.00;;;;;;2606066;54;21365;-77
2022/04/03 12:14:33;;;;;;;4.70;4.40;;;10.40;1.00;;;;;;2606624;54;20502;-76
2022/04/03 12:17:00;;;;;;;4.90;4.20;;;10.70;1.00;;;;;;2608358;46;20430;-76
2022/04/03 12:19:28;;;;;;;4.87;4.47;;;10.90;1.00;;;;;;2610525;47;20459;-75
2022/04/03 12:22:00;;;;;;;4.47;4.17;;;11.30;1.00;;;;;;2608705;54;20519;-76
2022/04/03 12:24:28;;;;;;;4.37;4.07;;;11.50;1.00;;;;;;2608388;46;20450;-76
2022/04/03 12:26:58;;;;;;;7.60;6.90;;;11.70;1.00;;;;;;2608363;54;21572;-76
2022/04/03 12:29:26;;;;;;;4.33;4.03;;;12.00;1.00;;;;;;2608068;54;20384;-76
2022/04/03 12:31:59;;;;;;;5.07;4.73;;;11.60;1.00;;;;;;2611667;54;20414;-77
2022/04/03 12:34:27;;;;;;;5.23;4.83;;;11.40;1.00;;;;;;2609854;54;20514;-76
2022/04/03 12:36:55;;;;;;;6.20;5.70;;;11.30;1.00;;;;;;2609522;54;20427;-76
2022/04/03 12:39:46;;;;;;;5.50;5.20;;;11.00;1.00;;;;;;2609162;54;20411;-76
2022/04/03 12:42:23;;;;;;;5.50;5.03;;;10.30;1.00;;;;;;2608388;54;20457;-77
2022/04/03 12:45:06;;;;;;;7.50;6.73;;;9.90;1.00;;;;;;2608516;46;20468;-77
2022/04/03 12:47:35;;;;;;;5.70;4.77;;;9.20;1.00;;;;;;2609150;54;20512;-76
2022/04/03 12:50:06;;;;;;;5.10;4.80;;;8.60;1.00;;;;;;2609416;47;20560;-78
2022/04/03 12:53:03;;;;;;;5.00;4.70;;;8.30;2.70;;;;;;2608929;47;20418;-77
2022/04/03 12:55:35;;;;;;;4.10;3.80;;;8.10;4.90;;;;;;2608449;54;20450;-78
2022/04/03 13:01:06;;;;;;;5.07;4.57;;;7.70;7.00;;;;;;2608389;47;20520;-76
2022/04/03 13:03:37;;;;;;;5.00;4.67;;;7.70;7.40;;;;;;2610735;54;20435;-76
2022/04/03 13:06:08;;;;;;;4.80;4.40;;;7.70;7.10;;;;;;2609935;47;20969;-77
2022/04/03 13:08:52;;;;;;;4.37;4.07;;;7.90;6.60;;;;;;2605880;54;20464;-78